Time;durP1;ratioP1;P1;durP2;ratioP2;P2;SDS_P1;SDS_P2;PMS_P1;PMS_P2;Temp;Humidity;BMP_temperature;BMP_pressure;BME280_temperature;BME280_humidity;BME280_pressure;Samples;Min_cycle;Max_cycle;Signal;HPM_P1;HPM_P2
2023/05/30 00:01:20;;;;;;;7.30;3.50;;;14.60;73.10;;;;;;4952996;29;20353;-58
2023/05/30 00:03:47;;;;;;;7.20;3.63;;;14.60;74.00;;;;;;4954350;29;20243;-59
2023/05/30 00:06:14;;;;;;;6.37;3.63;;;14.60;74.50;;;;;;4953356;28;20858;-59
2023/05/30 00:08:41;;;;;;;6.57;3.70;;;14.70;74.90;;;;;;4953398;28;20923;-58
2023/05/30 00:11:07;;;;;;;6.03;3.57;;;14.60;75.00;;;;;;4953273;29;20505;-58
2023/05/30 00:13:33;;;;;;;4.87;3.63;;;14.60;75.50;;;;;;4953825;29;20415;-59
2023/05/30 00:16:00;;;;;;;4.53;3.70;;;14.60;75.90;;;;;;4952679;29;20960;-59
2023/05/30 00:18:34;;;;;;;5.90;3.70;;;14.70;76.80;;;;;;4952915;28;20184;-59
2023/05/30 00:21:05;;;;;;;7.00;3.73;;;14.70;76.90;;;;;;4943288;29;20426;-58
2023/05/30 00:23:32;;;;;;;4.50;3.67;;;14.70;77.10;;;;;;4952868;28;20441;-58
2023/05/30 00:25:59;;;;;;;9.47;4.10;;;14.70;77.10;;;;;;4952025;29;20558;-58
2023/05/30 00:28:25;;;;;;;6.40;3.70;;;14.70;77.00;;;;;;4952408;28;20483;-59
2023/05/30 00:30:53;;;;;;;5.53;3.63;;;14.70;76.50;;;;;;4953125;28;20435;-58
2023/05/30 00:33:19;;;;;;;5.87;3.47;;;14.70;76.20;;;;;;4952387;28;20542;-58
2023/05/30 00:35:45;;;;;;;6.90;3.87;;;14.70;75.90;;;;;;4953184;29;20435;-58
2023/05/30 00:38:11;;;;;;;7.00;3.80;;;14.70;76.00;;;;;;4951611;28;20795;-58
2023/05/30 00:40:37;;;;;;;3.97;3.67;;;14.70;76.50;;;;;;4952619;29;20186;-58
2023/05/30 00:43:02;;;;;;;5.20;3.33;;;14.60;76.60;;;;;;4952629;29;20656;-58
2023/05/30 00:45:28;;;;;;;5.90;3.67;;;14.50;78.30;;;;;;4955325;28;20284;-58
2023/05/30 00:47:54;;;;;;;5.57;3.87;;;14.50;79.00;;;;;;4955278;29;20464;-58
2023/05/30 00:50:20;;;;;;;7.13;3.50;;;14.50;79.00;;;;;;4955975;29;20173;-58
2023/05/30 00:52:50;;;;;;;6.33;3.80;;;14.30;80.00;;;;;;4957364;29;20251;-59
2023/05/30 00:55:16;;;;;;;5.37;3.87;;;14.30;80.80;;;;;;4955596;28;20444;-58
2023/05/30 00:57:43;;;;;;;6.53;3.47;;;14.30;80.80;;;;;;4956572;29;20436;-58
2023/05/30 01:00:11;;;;;;;7.07;3.57;;;14.40;81.30;;;;;;4955647;29;20444;-59
2023/05/30 01:02:39;;;;;;;12.53;3.90;;;14.40;81.70;;;;;;4956641;28;20440;-58
2023/05/30 01:05:06;;;;;;;6.17;3.80;;;14.40;82.60;;;;;;4952984;29;20548;-58
2023/05/30 01:07:33;;;;;;;7.07;3.80;;;14.30;83.60;;;;;;4956467;28;20431;-58
2023/05/30 01:09:59;;;;;;;5.70;3.70;;;14.30;84.00;;;;;;4943986;28;20440;-58
2023/05/30 01:12:42;;;;;;;5.23;4.23;;;14.30;84.10;;;;;;4951235;29;20439;-58
2023/05/30 01:15:17;;;;;;;12.90;4.17;;;14.20;84.80;;;;;;4945019;28;20540;-59
2023/05/30 01:17:55;;;;;;;4.47;4.00;;;14.30;85.50;;;;;;4957172;29;20753;-59
2023/05/30 01:20:24;;;;;;;6.20;4.30;;;14.20;85.50;;;;;;4955681;29;20930;-58
2023/05/30 01:23:14;;;;;;;5.97;4.20;;;14.10;86.70;;;;;;4956986;28;20421;-59
2023/05/30 01:25:59;;;;;;;9.30;4.23;;;14.10;86.90;;;;;;4956863;28;20476;-58
2023/05/30 01:28:29;;;;;;;10.07;4.60;;;14.00;88.10;;;;;;4955942;28;20618;-58
2023/05/30 01:30:57;;;;;;;4.90;4.00;;;14.00;88.20;;;;;;4956795;28;20817;-58
2023/05/30 01:33:24;;;;;;;5.00;3.30;;;14.00;89.20;;;;;;4955820;29;20830;-58
2023/05/30 01:35:50;;;;;;;6.80;3.90;;;14.00;88.60;;;;;;4956638;28;20423;-59
2023/05/30 01:38:16;;;;;;;4.87;3.77;;;14.00;89.00;;;;;;4955541;28;20918;-58
2023/05/30 01:40:56;;;;;;;9.33;3.97;;;14.00;89.40;;;;;;4956464;28;20491;-59
2023/05/30 01:43:47;;;;;;;6.77;3.63;;;14.00;90.00;;;;;;4970179;28;20588;-58
2023/05/30 01:46:32;;;;;;;4.33;3.80;;;14.00;90.00;;;;;;4955280;28;20967;-58
2023/05/30 01:49:09;;;;;;;7.77;3.50;;;14.00;90.10;;;;;;4955586;28;20960;-59
2023/05/30 01:51:59;;;;;;;7.50;4.37;;;14.00;90.20;;;;;;4955720;29;20439;-58
2023/05/30 01:54:28;;;;;;;8.33;4.40;;;14.00;90.40;;;;;;4955291;28;21231;-58
2023/05/30 01:57:00;;;;;;;5.20;3.90;;;14.00;90.40;;;;;;4954156;28;20895;-58
2023/05/30 01:59:27;;;;;;;5.27;4.70;;;14.00;90.40;;;;;;4955184;29;21027;-58
2023/05/30 02:01:55;;;;;;;10.60;3.90;;;14.00;90.60;;;;;;4955680;29;20415;-59
2023/05/30 02:04:20;;;;;;;6.70;4.00;;;13.80;90.70;;;;;;4955401;29;20898;-59
2023/05/30 02:06:46;;;;;;;10.47;4.50;;;13.80;91.20;;;;;;4956174;29;20562;-58
2023/05/30 02:09:12;;;;;;;12.27;4.00;;;13.70;91.50;;;;;;4955159;29;20183;-58
2023/05/30 02:11:37;;;;;;;9.33;4.27;;;13.70;92.00;;;;;;4953871;29;20594;-58
2023/05/30 02:14:05;;;;;;;9.47;4.83;;;13.70;92.00;;;;;;4955155;29;20196;-59
2023/05/30 02:16:31;;;;;;;7.70;4.00;;;13.60;92.10;;;;;;4936545;29;20181;-58
2023/05/30 02:18:57;;;;;;;10.27;5.20;;;13.40;92.60;;;;;;4955812;29;20975;-59
2023/05/30 02:21:22;;;;;;;6.00;4.37;;;13.40;92.80;;;;;;4955550;28;20179;-58
2023/05/30 02:23:49;;;;;;;6.90;4.67;;;13.30;93.10;;;;;;4956438;28;20502;-59
2023/05/30 02:26:15;;;;;;;5.70;4.10;;;13.40;93.70;;;;;;4955332;29;20200;-58
2023/05/30 02:28:41;;;;;;;8.43;4.37;;;13.50;94.20;;;;;;4955944;29;20600;-58
2023/05/30 02:31:07;;;;;;;7.40;4.60;;;13.50;94.30;;;;;;4955921;28;20417;-58
2023/05/30 02:33:33;;;;;;;9.97;4.73;;;13.60;94.60;;;;;;4955777;28;20440;-59
2023/05/30 02:35:59;;;;;;;8.53;4.63;;;13.60;94.80;;;;;;4955770;28;20429;-59
2023/05/30 02:38:25;;;;;;;7.80;4.20;;;13.70;94.90;;;;;;4955185;29;20273;-59
2023/05/30 02:40:51;;;;;;;8.23;3.60;;;13.70;94.80;;;;;;4955036;28;20428;-59
2023/05/30 02:43:16;;;;;;;6.07;4.53;;;13.70;95.20;;;;;;4954508;29;20290;-58
2023/05/30 02:45:42;;;;;;;6.47;4.47;;;13.70;95.40;;;;;;4954299;29;20243;-59
2023/05/30 02:48:08;;;;;;;8.47;4.43;;;13.80;95.40;;;;;;4955641;29;20187;-59
2023/05/30 02:50:34;;;;;;;6.63;4.50;;;13.80;95.40;;;;;;4954954;28;20192;-58
2023/05/30 02:53:01;;;;;;;9.87;5.37;;;13.70;95.90;;;;;;4955173;28;20904;-59
2023/05/30 02:55:27;;;;;;;9.17;5.60;;;13.70;96.50;;;;;;4954971;28;20416;-59
2023/05/30 02:57:52;;;;;;;7.10;5.10;;;13.70;96.30;;;;;;4955427;29;20473;-58
2023/05/30 03:00:20;;;;;;;10.50;5.40;;;13.70;96.80;;;;;;4954789;29;20188;-58
2023/05/30 03:02:46;;;;;;;12.13;5.23;;;13.70;97.20;;;;;;4955223;28;20710;-59
2023/05/30 03:05:12;;;;;;;11.90;6.63;;;13.70;97.70;;;;;;4954641;29;20487;-59
2023/05/30 03:07:38;;;;;;;8.40;6.10;;;13.60;98.30;;;;;;4954356;28;20180;-59
2023/05/30 03:10:04;;;;;;;9.43;5.80;;;13.50;98.40;;;;;;4939214;29;20441;-59
2023/05/30 03:12:30;;;;;;;11.33;6.70;;;13.50;98.80;;;;;;4954617;28;20657;-59
2023/05/30 03:14:56;;;;;;;9.47;6.20;;;13.50;98.90;;;;;;4955148;29;20429;-59
2023/05/30 03:17:22;;;;;;;11.30;7.37;;;13.50;98.90;;;;;;4954600;29;20175;-59
2023/05/30 03:19:48;;;;;;;10.97;6.67;;;13.60;99.10;;;;;;4955115;28;20262;-58
2023/05/30 03:22:14;;;;;;;9.90;7.00;;;13.60;99.40;;;;;;4954421;28;20404;-58
2023/05/30 03:24:40;;;;;;;11.83;6.40;;;13.50;99.70;;;;;;4954761;29;20459;-59
2023/05/30 03:27:07;;;;;;;16.00;8.17;;;13.50;99.10;;;;;;4954966;28;20490;-58
2023/05/30 03:29:33;;;;;;;10.07;7.00;;;13.40;99.10;;;;;;4954375;28;20416;-58
2023/05/30 03:31:59;;;;;;;7.23;6.40;;;13.30;99.90;;;;;;4955169;28;20413;-59
2023/05/30 03:34:25;;;;;;;10.73;7.33;;;13.30;99.90;;;;;;4954299;28;20419;-59
2023/05/30 03:36:52;;;;;;;9.17;6.00;;;13.30;99.60;;;;;;4953835;28;20412;-58
2023/05/30 03:39:21;;;;;;;13.10;5.93;;;13.30;99.90;;;;;;4948629;28;20428;-58
2023/05/30 03:41:47;;;;;;;17.17;7.13;;;13.30;99.90;;;;;;4953252;29;20438;-58
2023/05/30 03:44:14;;;;;;;13.50;12.20;;;13.30;99.90;;;;;;4954077;29;20452;-59
2023/05/30 03:46:40;;;;;;;9.17;8.10;;;13.40;99.90;;;;;;4953906;28;20644;-58
2023/05/30 03:49:05;;;;;;;11.23;6.77;;;13.40;99.90;;;;;;4954302;29;20416;-58
2023/05/30 03:51:33;;;;;;;13.33;7.37;;;13.50;99.90;;;;;;4953221;28;20419;-58
2023/05/30 03:53:59;;;;;;;17.13;10.17;;;13.50;99.90;;;;;;4953467;29;20427;-59
2023/05/30 03:56:25;;;;;;;11.50;8.33;;;13.50;99.90;;;;;;4952878;28;20444;-58
2023/05/30 03:58:52;;;;;;;9.63;7.40;;;13.50;99.50;;;;;;4953339;28;20188;-59
2023/05/30 04:01:18;;;;;;;8.53;7.40;;;13.50;99.90;;;;;;4953470;28;20511;-58
2023/05/30 04:03:45;;;;;;;12.57;7.77;;;13.50;99.70;;;;;;4953339;28;20435;-59
2023/05/30 04:06:10;;;;;;;8.73;7.70;;;13.50;99.90;;;;;;4952830;29;20828;-59
2023/05/30 04:08:36;;;;;;;12.40;8.40;;;13.50;99.90;;;;;;4952155;29;20435;-59
2023/05/30 04:11:03;;;;;;;11.30;7.40;;;13.50;99.90;;;;;;4953415;29;20191;-59
2023/05/30 04:13:29;;;;;;;12.60;7.70;;;13.50;99.80;;;;;;4953030;28;20454;-58
2023/05/30 04:15:55;;;;;;;12.50;7.33;;;13.60;99.90;;;;;;4954116;28;20515;-58
2023/05/30 04:18:21;;;;;;;12.70;7.57;;;13.50;99.90;;;;;;4953244;28;20180;-58
2023/05/30 04:20:46;;;;;;;8.03;7.13;;;13.50;99.90;;;;;;4957557;28;20177;-58
2023/05/30 04:23:12;;;;;;;16.00;8.10;;;13.50;99.90;;;;;;4957930;28;20208;-59
2023/05/30 04:25:38;;;;;;;12.47;8.13;;;13.60;99.90;;;;;;4956989;29;20219;-58
2023/05/30 04:28:05;;;;;;;12.00;7.87;;;13.70;99.90;;;;;;4957770;29;20423;-58
2023/05/30 04:30:35;;;;;;;8.87;7.90;;;13.70;99.90;;;;;;4956157;28;20639;-58
2023/05/30 04:33:04;;;;;;;13.30;8.77;;;13.70;99.90;;;;;;4956188;28;20450;-58
2023/05/30 04:35:32;;;;;;;9.60;7.90;;;13.80;99.90;;;;;;4956820;28;20412;-58
2023/05/30 04:37:58;;;;;;;13.00;8.90;;;13.70;99.90;;;;;;4957384;28;20903;-58
2023/05/30 04:40:26;;;;;;;12.20;8.80;;;13.70;99.90;;;;;;4956321;29;20443;-58
2023/05/30 04:42:52;;;;;;;15.93;8.77;;;13.70;99.90;;;;;;4956040;29;20463;-58
2023/05/30 04:45:18;;;;;;;16.77;10.03;;;13.70;99.90;;;;;;4956082;29;20926;-58
2023/05/30 04:47:47;;;;;;;13.10;8.80;;;13.70;99.90;;;;;;4955424;28;20199;-58
2023/05/30 04:50:14;;;;;;;15.10;8.23;;;13.80;99.90;;;;;;4951529;29;20448;-58
2023/05/30 04:52:42;;;;;;;13.90;9.10;;;13.80;99.90;;;;;;4954736;29;21052;-58
2023/05/30 04:55:09;;;;;;;17.27;8.23;;;13.90;99.90;;;;;;4956753;28;20440;-58
2023/05/30 04:57:38;;;;;;;14.50;9.20;;;13.90;99.90;;;;;;4956487;29;20416;-58
2023/05/30 05:00:10;;;;;;;9.50;7.90;;;13.90;99.90;;;;;;4954095;29;20543;-58
2023/05/30 05:02:38;;;;;;;12.07;8.80;;;14.00;99.90;;;;;;4955254;28;20966;-58
2023/05/30 05:05:05;;;;;;;10.53;8.77;;;14.00;99.70;;;;;;4955890;28;20460;-58
2023/05/30 05:07:31;;;;;;;11.80;9.33;;;13.90;99.90;;;;;;4956316;28;20412;-58
2023/05/30 05:09:57;;;;;;;18.77;8.77;;;13.80;99.70;;;;;;4955083;29;20915;-58
2023/05/30 05:12:23;;;;;;;11.60;8.10;;;13.80;99.90;;;;;;4956309;29;20571;-58
2023/05/30 05:14:50;;;;;;;10.63;7.10;;;13.90;99.90;;;;;;4957074;29;20228;-58
2023/05/30 05:17:16;;;;;;;11.17;7.80;;;13.90;99.90;;;;;;4956673;29;20180;-58
2023/05/30 05:19:41;;;;;;;9.43;8.37;;;13.90;99.90;;;;;;4955965;29;20947;-58
2023/05/30 05:22:08;;;;;;;10.80;7.70;;;13.90;99.90;;;;;;4956781;29;20267;-58
2023/05/30 05:24:33;;;;;;;13.57;7.83;;;13.90;99.90;;;;;;4955892;28;20279;-58
2023/05/30 05:26:59;;;;;;;11.00;8.87;;;13.90;99.90;;;;;;4955938;29;21015;-58
2023/05/30 05:29:25;;;;;;;10.23;7.50;;;13.90;99.90;;;;;;4955905;28;20527;-58
2023/05/30 05:31:51;;;;;;;12.57;7.63;;;13.80;99.90;;;;;;4953625;28;20327;-58
2023/05/30 05:34:17;;;;;;;14.00;7.90;;;13.90;99.90;;;;;;4956122;29;20666;-58
2023/05/30 05:36:43;;;;;;;14.47;8.50;;;13.90;99.90;;;;;;4956007;29;20413;-58
2023/05/30 05:39:09;;;;;;;10.23;7.97;;;14.00;99.90;;;;;;4951489;29;20276;-59
2023/05/30 05:41:35;;;;;;;11.93;8.53;;;14.00;99.90;;;;;;4952239;29;20190;-58
2023/05/30 05:44:01;;;;;;;13.23;9.50;;;14.00;99.90;;;;;;4948962;28;20236;-58
2023/05/30 05:46:27;;;;;;;17.47;9.40;;;14.10;99.90;;;;;;4952926;28;20591;-58
2023/05/30 05:48:54;;;;;;;13.40;8.43;;;14.00;99.80;;;;;;4954016;28;20508;-58
2023/05/30 05:51:20;;;;;;;8.80;7.90;;;13.90;99.50;;;;;;4949274;28;20185;-58
2023/05/30 05:53:46;;;;;;;13.77;8.70;;;14.00;99.90;;;;;;4937227;29;20414;-58
2023/05/30 05:56:12;;;;;;;15.40;9.00;;;14.00;99.90;;;;;;4957177;28;20778;-58
2023/05/30 05:58:38;;;;;;;11.10;8.87;;;14.00;99.90;;;;;;4954819;29;20213;-58
2023/05/30 06:01:04;;;;;;;9.73;8.60;;;14.00;99.90;;;;;;4950946;29;20181;-58
2023/05/30 06:03:30;;;;;;;11.10;8.87;;;14.00;99.90;;;;;;4951593;29;20189;-58
2023/05/30 06:05:56;;;;;;;9.83;8.83;;;14.10;99.90;;;;;;4937264;29;21025;-58
2023/05/30 06:08:22;;;;;;;10.03;8.90;;;14.10;99.90;;;;;;4942730;29;20510;-58
2023/05/30 06:10:48;;;;;;;11.63;9.57;;;14.20;99.80;;;;;;4954989;29;20501;-58
2023/05/30 06:13:15;;;;;;;11.87;9.17;;;14.20;99.30;;;;;;4956795;29;20228;-58
2023/05/30 06:15:40;;;;;;;11.50;10.30;;;14.20;99.90;;;;;;4954728;29;20197;-58
2023/05/30 06:18:06;;;;;;;13.07;8.83;;;14.30;99.50;;;;;;4949581;29;20914;-58
2023/05/30 06:20:32;;;;;;;16.00;8.47;;;14.30;99.30;;;;;;4953248;28;20192;-58
2023/05/30 06:22:58;;;;;;;12.93;9.27;;;13.80;98.90;;;;;;4950027;29;20180;-58
2023/05/30 06:25:25;;;;;;;16.43;11.20;;;13.80;99.50;;;;;;4948692;29;20355;-58
2023/05/30 06:27:52;;;;;;;15.93;9.53;;;13.90;99.90;;;;;;4947342;28;20170;-58
2023/05/30 06:30:18;;;;;;;10.13;9.00;;;14.10;99.90;;;;;;4948191;28;20436;-58
2023/05/30 06:32:44;;;;;;;13.27;8.70;;;14.10;99.90;;;;;;4948526;29;20424;-57
2023/05/30 06:35:10;;;;;;;12.33;9.50;;;14.10;99.90;;;;;;4950652;28;20525;-58
2023/05/30 06:37:35;;;;;;;14.40;9.80;;;14.20;99.90;;;;;;4944369;29;20486;-58
2023/05/30 06:40:02;;;;;;;9.17;7.57;;;14.40;99.90;;;;;;4946245;29;20190;-58
2023/05/30 06:42:28;;;;;;;15.63;9.17;;;14.50;99.20;;;;;;4945846;28;20190;-57
2023/05/30 06:44:54;;;;;;;14.77;8.67;;;14.30;98.50;;;;;;4948954;29;20468;-56
2023/05/30 06:47:20;;;;;;;14.70;8.80;;;14.30;98.90;;;;;;4944935;28;20181;-60
2023/05/30 06:49:47;;;;;;;11.97;8.33;;;14.40;99.90;;;;;;4945757;28;20205;-60
2023/05/30 06:52:12;;;;;;;11.53;10.23;;;14.50;99.90;;;;;;4949020;28;20457;-63
2023/05/30 06:54:38;;;;;;;11.67;9.37;;;14.80;99.90;;;;;;4947447;28;20203;-60
2023/05/30 06:57:04;;;;;;;13.70;9.40;;;15.10;99.90;;;;;;4947374;29;20188;-60
2023/05/30 06:59:34;;;;;;;11.73;8.87;;;15.30;99.90;;;;;;4941092;29;20266;-59
2023/05/30 07:02:01;;;;;;;13.60;10.20;;;15.20;99.90;;;;;;4946672;29;20522;-59
2023/05/30 07:04:27;;;;;;;14.17;8.30;;;15.00;99.90;;;;;;4947869;29;20426;-59
2023/05/30 07:06:53;;;;;;;9.40;7.87;;;15.20;99.90;;;;;;4945620;29;20524;-59
2023/05/30 07:09:19;;;;;;;18.50;11.20;;;15.20;99.40;;;;;;4948014;28;20666;-59
2023/05/30 07:11:45;;;;;;;31.43;22.23;;;15.40;99.90;;;;;;4944266;29;20460;-59
2023/05/30 07:14:11;;;;;;;15.53;11.60;;;15.90;99.90;;;;;;4944298;29;20546;-59
2023/05/30 07:16:38;;;;;;;17.80;11.40;;;16.30;99.90;;;;;;4945459;29;20231;-59
2023/05/30 07:19:03;;;;;;;120.03;68.50;;;16.60;99.90;;;;;;4948184;29;20181;-59
2023/05/30 07:21:29;;;;;;;81.03;48.50;;;17.00;99.90;;;;;;4945802;28;20501;-59
2023/05/30 07:23:55;;;;;;;43.60;29.07;;;17.40;99.90;;;;;;4948121;28;20193;-59
2023/05/30 07:26:22;;;;;;;75.33;47.90;;;17.80;99.90;;;;;;4949897;28;20215;-59
2023/05/30 07:28:48;;;;;;;33.27;22.27;;;18.20;99.90;;;;;;4944450;29;20413;-59
2023/05/30 07:31:15;;;;;;;74.00;49.07;;;18.40;99.90;;;;;;4944617;29;20466;-59
2023/05/30 07:33:41;;;;;;;33.33;23.00;;;18.60;99.90;;;;;;4942896;29;20960;-59
2023/05/30 07:36:07;;;;;;;53.97;39.27;;;18.80;99.80;;;;;;4945890;28;20535;-59
2023/05/30 07:38:33;;;;;;;47.30;33.57;;;19.10;99.90;;;;;;4946703;29;20271;-59
2023/05/30 07:40:59;;;;;;;68.30;44.20;;;19.30;98.40;;;;;;4947329;29;20584;-59
2023/05/30 07:43:25;;;;;;;72.20;48.70;;;19.50;97.00;;;;;;4948402;29;20456;-60
2023/05/30 07:45:51;;;;;;;41.33;29.23;;;19.70;96.90;;;;;;4953623;29;20574;-60
2023/05/30 07:48:16;;;;;;;67.23;40.43;;;19.80;96.50;;;;;;4954881;29;20491;-59
2023/05/30 07:50:42;;;;;;;51.07;32.57;;;19.80;95.70;;;;;;4951184;28;20254;-59
2023/05/30 07:53:08;;;;;;;49.33;29.53;;;19.90;97.40;;;;;;4951223;28;20295;-59
2023/05/30 07:55:33;;;;;;;38.27;25.20;;;20.00;94.60;;;;;;4953044;28;20193;-60
2023/05/30 07:57:59;;;;;;;57.40;37.07;;;20.10;96.50;;;;;;4949644;29;20208;-60
2023/05/30 08:00:25;;;;;;;13.07;10.77;;;20.30;95.90;;;;;;4946511;29;20231;-59
2023/05/30 08:02:50;;;;;;;11.83;9.13;;;20.00;88.50;;;;;;4944851;29;20169;-60
2023/05/30 08:05:16;;;;;;;30.57;22.70;;;19.50;92.40;;;;;;4943695;29;20202;-60
2023/05/30 08:07:42;;;;;;;28.23;18.33;;;18.70;92.40;;;;;;4941637;29;20186;-61
2023/05/30 08:10:08;;;;;;;15.00;11.20;;;18.80;93.60;;;;;;4949349;28;20197;-59
2023/05/30 08:12:34;;;;;;;14.13;8.60;;;18.90;92.50;;;;;;4949090;28;20232;-59
2023/05/30 08:15:00;;;;;;;31.27;23.43;;;18.80;90.40;;;;;;4946689;29;20464;-59
2023/05/30 08:17:27;;;;;;;133.67;89.13;;;18.70;90.90;;;;;;4949148;29;20190;-59
2023/05/30 08:19:55;;;;;;;48.63;34.43;;;18.60;90.90;;;;;;4949478;28;20184;-59
2023/05/30 08:22:22;;;;;;;23.83;18.83;;;18.40;90.60;;;;;;4945774;28;20773;-59
2023/05/30 08:24:50;;;;;;;13.23;8.73;;;18.00;90.20;;;;;;4947309;29;21306;-59
2023/05/30 08:27:17;;;;;;;14.77;10.90;;;17.90;92.00;;;;;;4950210;28;20776;-59
2023/05/30 08:29:43;;;;;;;10.73;8.60;;;17.90;92.40;;;;;;4945974;29;20412;-59
2023/05/30 08:32:09;;;;;;;14.50;9.60;;;18.00;94.00;;;;;;4945617;28;20774;-60
2023/05/30 08:34:34;;;;;;;10.50;8.40;;;18.20;94.50;;;;;;4944467;28;20425;-59
2023/05/30 08:37:01;;;;;;;11.53;9.80;;;18.30;92.90;;;;;;4945825;28;20691;-59
2023/05/30 08:39:27;;;;;;;15.80;10.80;;;18.50;93.90;;;;;;4949416;29;20180;-59
2023/05/30 08:41:53;;;;;;;11.93;10.00;;;18.70;93.40;;;;;;4941499;28;20496;-59
2023/05/30 08:44:19;;;;;;;12.47;9.70;;;18.80;91.50;;;;;;4940955;29;21027;-59
2023/05/30 08:46:45;;;;;;;12.00;10.73;;;18.90;91.20;;;;;;4946551;29;20217;-59
2023/05/30 08:49:20;;;;;;;16.20;13.20;;;19.00;91.80;;;;;;4943161;28;20421;-59
2023/05/30 08:51:47;;;;;;;147.57;103.67;;;19.00;89.50;;;;;;4945230;28;20405;-59
2023/05/30 08:54:21;;;;;;;16.73;12.00;;;18.90;90.50;;;;;;4944720;29;20424;-59
2023/05/30 08:56:57;;;;;;;21.23;11.97;;;18.80;90.70;;;;;;4941589;29;20473;-60
2023/05/30 08:59:25;;;;;;;12.10;9.00;;;18.50;94.50;;;;;;4945068;29;20401;-59
2023/05/30 09:01:53;;;;;;;10.37;9.10;;;18.90;92.90;;;;;;4941931;29;20413;-60
2023/05/30 09:04:21;;;;;;;9.77;8.50;;;18.60;88.30;;;;;;4942736;29;20406;-59
2023/05/30 09:06:48;;;;;;;12.97;10.20;;;18.30;90.10;;;;;;4945645;29;20528;-59
2023/05/30 09:09:15;;;;;;;11.03;8.87;;;18.00;90.60;;;;;;4948909;29;20414;-59
2023/05/30 09:11:42;;;;;;;10.20;8.87;;;17.60;90.30;;;;;;4948124;29;20436;-59
2023/05/30 09:14:08;;;;;;;12.53;9.80;;;17.40;92.10;;;;;;4941504;29;20433;-59
2023/05/30 09:16:34;;;;;;;16.70;10.43;;;17.50;93.50;;;;;;4944890;29;20413;-60
2023/05/30 09:19:00;;;;;;;17.30;10.20;;;17.70;92.90;;;;;;4951749;29;20173;-60
2023/05/30 09:21:27;;;;;;;12.40;9.10;;;17.70;92.00;;;;;;4956702;28;20409;-60
2023/05/30 09:23:53;;;;;;;11.70;9.40;;;17.80;94.20;;;;;;4955175;29;20185;-60
2023/05/30 09:26:18;;;;;;;10.77;9.30;;;18.10;93.50;;;;;;4956319;28;20821;-60
2023/05/30 09:28:48;;;;;;;10.30;8.47;;;18.50;94.40;;;;;;4953533;29;20231;-60
2023/05/30 09:31:16;;;;;;;10.87;8.50;;;18.70;90.70;;;;;;4956348;28;20698;-60
2023/05/30 09:33:50;;;;;;;9.50;8.57;;;18.20;91.20;;;;;;4953730;29;20421;-61
2023/05/30 09:36:20;;;;;;;15.90;10.93;;;18.50;92.70;;;;;;4955573;29;21012;-60
2023/05/30 09:38:59;;;;;;;11.10;8.47;;;18.70;92.60;;;;;;4953591;29;20456;-59
2023/05/30 09:41:26;;;;;;;99.80;76.43;;;18.90;91.00;;;;;;4955739;28;20436;-61
2023/05/30 09:43:55;;;;;;;43.47;30.77;;;19.00;91.90;;;;;;4954704;28;20459;-61
2023/05/30 09:46:23;;;;;;;24.20;20.43;;;19.10;91.70;;;;;;4956288;28;20457;-61
2023/05/30 09:48:50;;;;;;;17.13;10.50;;;19.30;91.20;;;;;;4955023;28;20433;-61
2023/05/30 09:51:21;;;;;;;16.37;9.53;;;19.40;90.30;;;;;;4956290;28;20409;-60
2023/05/30 09:54:03;;;;;;;10.23;9.23;;;19.40;89.90;;;;;;4952466;29;20401;-60
2023/05/30 09:56:40;;;;;;;10.63;9.20;;;19.20;88.80;;;;;;4955655;28;20932;-60
2023/05/30 09:59:08;;;;;;;13.33;9.63;;;19.10;91.30;;;;;;4947774;29;20909;-60
2023/05/30 10:01:45;;;;;;;12.63;9.40;;;19.20;90.90;;;;;;4955427;28;20416;-60
2023/05/30 10:04:18;;;;;;;11.53;10.30;;;19.10;90.90;;;;;;4956326;29;20431;-60
2023/05/30 10:06:46;;;;;;;10.70;8.40;;;19.30;91.20;;;;;;4955483;28;20457;-60
2023/05/30 10:09:12;;;;;;;13.67;9.83;;;19.60;90.00;;;;;;4956480;29;20468;-60
2023/05/30 10:11:39;;;;;;;15.33;10.37;;;19.70;88.70;;;;;;4955583;28;20897;-60
2023/05/30 10:14:09;;;;;;;13.83;9.63;;;19.70;87.70;;;;;;4954728;28;20433;-60
2023/05/30 10:16:58;;;;;;;11.80;10.60;;;19.70;88.30;;;;;;4954053;28;20436;-60
2023/05/30 10:19:40;;;;;;;15.50;9.17;;;19.70;89.80;;;;;;4955974;28;20401;-60
2023/05/30 10:22:08;;;;;;;11.90;9.30;;;19.90;91.60;;;;;;4955477;29;20408;-60
2023/05/30 10:24:34;;;;;;;12.40;9.87;;;20.10;90.00;;;;;;4954429;29;20512;-61
2023/05/30 10:27:03;;;;;;;12.00;10.70;;;20.20;88.60;;;;;;4954713;28;20443;-60
2023/05/30 10:29:46;;;;;;;10.90;8.73;;;20.40;91.30;;;;;;4953206;28;20451;-60
2023/05/30 10:32:18;;;;;;;9.73;8.50;;;20.50;90.20;;;;;;4955058;28;20424;-66
2023/05/30 10:34:56;;;;;;;14.27;9.77;;;20.60;89.50;;;;;;4954494;29;20417;-62
2023/05/30 10:37:23;;;;;;;10.77;9.33;;;20.70;85.50;;;;;;4954198;28;20417;-63
2023/05/30 10:40:12;;;;;;;14.63;9.90;;;20.20;84.30;;;;;;4953352;29;20424;-62
2023/05/30 10:43:03;;;;;;;140.03;106.80;;;20.40;92.30;;;;;;4947121;29;20963;-62
2023/05/30 10:45:44;;;;;;;60.43;51.17;;;20.70;90.60;;;;;;4955141;28;20456;-63
2023/05/30 10:48:10;;;;;;;11.67;10.50;;;21.00;90.90;;;;;;4954206;28;20496;-62
2023/05/30 10:50:41;;;;;;;10.80;9.30;;;21.10;87.20;;;;;;4954183;28;20493;-62
2023/05/30 10:53:26;;;;;;;11.23;9.10;;;21.10;87.80;;;;;;4952995;29;20208;-63
2023/05/30 10:55:52;;;;;;;10.30;9.20;;;21.30;82.50;;;;;;4952260;28;20435;-60
2023/05/30 10:58:37;;;;;;;11.67;8.60;;;21.40;82.40;;;;;;4953510;28;20432;-60
2023/05/30 11:01:21;;;;;;;11.57;8.97;;;21.60;82.20;;;;;;4935335;29;20419;-60
2023/05/30 11:03:47;;;;;;;13.80;9.27;;;21.70;84.10;;;;;;4934298;29;20813;-60
2023/05/30 11:06:14;;;;;;;13.40;12.10;;;21.70;83.50;;;;;;4935970;29;20493;-60
2023/05/30 11:08:40;;;;;;;13.07;9.20;;;21.90;82.50;;;;;;4935360;29;20177;-60
2023/05/30 11:11:19;;;;;;;10.90;9.87;;;22.00;79.80;;;;;;4938191;29;20421;-60
2023/05/30 11:13:49;;;;;;;11.30;9.53;;;22.00;80.80;;;;;;4935486;29;20822;-60
2023/05/30 11:16:23;;;;;;;11.47;10.37;;;22.10;81.90;;;;;;4935993;29;20460;-60
2023/05/30 11:18:51;;;;;;;11.40;10.40;;;22.20;79.90;;;;;;4935298;29;20417;-60
2023/05/30 11:21:55;;;;;;;15.13;11.17;;;22.20;79.60;;;;;;4938360;29;20421;-60
2023/05/30 11:24:21;;;;;;;11.57;10.47;;;22.30;79.70;;;;;;4935836;29;20502;-60
2023/05/30 11:26:53;;;;;;;11.63;10.70;;;22.40;79.20;;;;;;4934819;29;20965;-60
2023/05/30 11:29:31;;;;;;;13.27;10.20;;;22.40;75.70;;;;;;4935179;29;20835;-60
2023/05/30 11:31:57;;;;;;;10.60;9.73;;;22.40;72.50;;;;;;4948158;29;20420;-60
2023/05/30 11:34:23;;;;;;;11.60;10.43;;;22.40;73.40;;;;;;4955210;28;20463;-60
2023/05/30 11:36:49;;;;;;;9.97;9.27;;;22.50;75.10;;;;;;4954190;28;20573;-60
2023/05/30 11:39:18;;;;;;;10.30;9.30;;;22.50;78.50;;;;;;4954992;28;20432;-60
2023/05/30 11:41:44;;;;;;;10.20;9.30;;;22.70;78.60;;;;;;4953803;28;20467;-60
2023/05/30 11:44:10;;;;;;;9.93;9.03;;;22.80;77.60;;;;;;4954663;29;20465;-60
2023/05/30 11:46:36;;;;;;;11.40;9.70;;;22.80;77.00;;;;;;4946057;29;20461;-60
2023/05/30 11:49:05;;;;;;;10.67;9.23;;;22.90;77.10;;;;;;4944561;29;20196;-60
2023/05/30 11:51:32;;;;;;;11.73;10.60;;;22.90;77.60;;;;;;4945528;29;20419;-60
2023/05/30 11:53:58;;;;;;;13.07;10.60;;;22.90;75.00;;;;;;4942745;29;20525;-60
2023/05/30 11:56:29;;;;;;;11.17;9.87;;;22.90;73.10;;;;;;4941998;28;20429;-60
2023/05/30 11:58:59;;;;;;;9.77;8.97;;;22.90;79.90;;;;;;4945600;28;20448;-60
2023/05/30 12:01:25;;;;;;;10.60;9.60;;;22.90;75.70;;;;;;4935867;28;20418;-60
2023/05/30 12:03:53;;;;;;;10.63;9.20;;;22.80;75.30;;;;;;4936680;29;20397;-60
2023/05/30 12:06:19;;;;;;;10.33;8.80;;;22.80;75.70;;;;;;4946957;29;20468;-60
2023/05/30 12:08:49;;;;;;;10.07;8.90;;;22.80;75.90;;;;;;4947926;29;20409;-60
2023/05/30 12:11:15;;;;;;;10.00;9.10;;;22.80;75.50;;;;;;4946709;28;20192;-60
2023/05/30 12:13:42;;;;;;;9.73;8.73;;;22.70;75.20;;;;;;4939030;29;20564;-60
2023/05/30 12:16:13;;;;;;;9.60;8.57;;;22.60;77.10;;;;;;4937706;29;20440;-60
2023/05/30 12:18:39;;;;;;;9.00;8.30;;;22.50;72.30;;;;;;4934688;29;20406;-61
2023/05/30 12:21:06;;;;;;;9.93;8.90;;;22.50;75.30;;;;;;4934535;29;20777;-60
2023/05/30 12:23:32;;;;;;;10.23;9.33;;;22.50;76.40;;;;;;4934305;29;20961;-60
2023/05/30 12:25:58;;;;;;;9.97;8.33;;;22.60;78.60;;;;;;4934108;29;20495;-60
2023/05/30 12:28:24;;;;;;;10.20;8.70;;;22.70;76.70;;;;;;4935180;29;20402;-60
2023/05/30 12:30:53;;;;;;;8.67;7.97;;;22.70;75.40;;;;;;4934607;29;20622;-60
2023/05/30 12:33:24;;;;;;;10.90;9.80;;;22.70;75.90;;;;;;4934656;29;20581;-60
2023/05/30 12:35:54;;;;;;;11.13;8.90;;;22.70;73.80;;;;;;4934396;29;20401;-60
2023/05/30 12:38:21;;;;;;;10.33;8.20;;;22.80;77.30;;;;;;4935166;29;20465;-60
2023/05/30 12:40:48;;;;;;;10.47;9.47;;;22.90;75.00;;;;;;4943366;29;20503;-60
2023/05/30 12:43:15;;;;;;;9.67;8.77;;;22.80;74.00;;;;;;4957723;29;20474;-60